Terminal Aerodrome Forecast
Issued by NWS Paducah, KY

Home | Current Version | Previous Version | Text Only | Print | Product List | Glossary On
Versions: 1 2 3 4 5 6 7 8 9 10 11 12 13 14 15 16 17 18 19 20 21 22
000
FTUS43 KPAH 191706 AAE
TAFEVV
TAF AMD
KEVV 191706Z 1917/2012 VRB03KT P6SM BKN007
      TEMPO 1917/1920 5SM BR SCT007
     FM192000 17004KT P6SM SCT010
     FM200000 16003KT P6SM BKN010
     FM200500 00000KT 3SM BR BKN005
      TEMPO 2008/2012 1SM BR=

USA.gov is the U.S. government's official web portal to all federal, state and local government web resources and services.